Nearby METAR Reports

 

KIKK - Kankakee, Illinois, USA
Distance from station: S 7mi, 12km
Updated: Sat, 21-Apr-2018 9:55pm CDT
Clear
Clear
 Wind from NE
Wind: NE 10 mph , 17 km/h
Temperature: 46°F , 8°C
Wind Chill: 41°F , 5°C
Dew Point: 30°F , -1°C
Humidity: 53%
Barometer: 30.37 inHg , 1028.4 hPa
Clouds: Clear
Visibility: 10 miles , 16 km
2018/04/22 02:55 KIKK 220255Z AUTO 04009KT 10SM CLR 08/M01 A3037 RMK AO2 T00751008
KIGQ - Chicago/Lansing, Illinois, USA
Distance from station: NNE 29mi, 47km
Updated: Sat, 21-Apr-2018 9:55pm CDT
Clear
Clear
 Wind from calm
Wind: Calm
Temperature: 43°F , 6°C
Dew Point: 27°F , -3°C
Humidity: 53%
Barometer: 30.40 inHg , 1029.5 hPa
Clouds: Clear
Visibility: 10 miles , 16 km
2018/04/22 02:55 KIGQ 220255Z AUTO 00000KT 10SM CLR 06/M03 A3040 RMK AO2 T00601029
 
KJOT - Joliet, Illinois, USA
Distance from station: NW 30mi, 48km
Updated: Sat, 21-Apr-2018 9:55pm CDT
Clear
Clear
 Wind from NNE
Wind: NNE 6 mph , 9 km/h
Temperature: 46°F , 8°C
Wind Chill: 43°F , 6°C
Dew Point: 25°F , -4°C
Humidity: 43%
Barometer: 30.38 inHg , 1028.8 hPa
Clouds: Clear
Visibility: 10 miles , 16 km
2018/04/22 02:55 KJOT 220255Z AUTO 03005KT 10SM CLR 08/M04 A3038 RMK AO2 T00821045
KLOT - Romeoville/Chi, Illinois, USA
Distance from station: NNW 34mi, 55km
Updated: Sat, 21-Apr-2018 9:55pm CDT
Clear
Clear
 Wind from ENE
Wind: ENE 8 mph , 13 km/h
Temperature: 45°F , 7°C
Wind Chill: 41°F , 5°C
Dew Point: 23°F , -5°C
Humidity: 42%
Barometer: 30.38 inHg , 1028.8 hPa
Clouds: Clear
Visibility: 10 miles , 16 km
2018/04/22 02:55 KLOT 220255Z AUTO 06007KT 10SM CLR 07/M05 A3038 RMK AO2 T00681054
 
KC09 - Morris-Washburn, Illinois, USA
Distance from station: WNW 36mi, 58km
Updated: Sat, 21-Apr-2018 9:55pm CDT
Clear
Clear
 Wind from NE
Wind: NE 5 mph , 7 km/h
Temperature: 45°F , 7°C
Wind Chill: 42°F , 6°C
Dew Point: 30°F , -1°C
Humidity: 57%
Barometer: 30.37 inHg , 1028.4 hPa
Clouds: Clear
Visibility: 10 miles , 16 km
2018/04/22 02:55 KC09 220255Z AUTO 05004KT 10SM CLR 07/M01 A3037 RMK AO2 T00721012
KRZL - Rensselaer, Indiana, USA
Distance from station: ESE 37mi, 59km
Updated: Sat, 21-Apr-2018 9:55pm CDT
Clear
Clear
 Wind from E
Wind: E 5 mph , 7 km/h
Temperature: 46°F , 8°C
Wind Chill: 44°F , 7°C
Dew Point: 27°F , -3°C
Humidity: 46%
Barometer: 30.36 inHg , 1028.1 hPa
Clouds: Clear
Visibility: 10 miles , 16 km
2018/04/22 02:55 KRZL 220255Z AUTO 08004KT 10SM CLR 08/M03 A3036 RMK AO2
 
KGYY - Gary Regional, Indiana, USA
Distance from station: NE 37mi, 60km
Updated: Sat, 21-Apr-2018 9:45pm CDT
Overcast
Overcast
 Wind from calm
Wind: Calm
Temperature: 43°F , 6°C
Dew Point: 25°F , -4°C
Humidity: 49%
Barometer: 30.40 inHg , 1029.5 hPa
Clouds: Overcast
Visibility: 10 miles , 16 km
Cloud details: Overcast 25000 ft
2018/04/22 02:45 KGYY 220245Z 00000KT 10SM OVC250 06/M04 A3040
KMDW - Chicago, Illinois, USA
Distance from station: N 42mi, 68km
Updated: Sat, 21-Apr-2018 9:53pm CDT
Overcast
Overcast
 Wind from E
Wind: E 5 mph , 7 km/h
Temperature: 46°F , 8°C
Wind Chill: 44°F , 7°C
Dew Point: 19°F , -7°C
Humidity: 34%
Barometer: 30.40 inHg , 1029.5 hPa
Clouds: Overcast
Visibility: 10 miles , 16 km
Cloud details: Mostly cloudy 14000 ft
Overcast 20000 ft
2018/04/22 02:53 KMDW 220253Z 08004KT 10SM BKN140 OVC200 08/M07 A3040 RMK AO2 SLP298 VIRGA T00831072 53009
 
KPNT - Pontiac, Illinois, USA
Distance from station: WSW 46mi, 74km
Updated: Sat, 21-Apr-2018 9:55pm CDT
Partly cloudy
Partly cloudy
 Wind from NE
Wind: NE 6 mph , 9 km/h
Temperature: 48°F , 9°C
Wind Chill: 45°F , 7°C
Dew Point: 36°F , 2°C
Humidity: 62%
Barometer: 30.37 inHg , 1028.4 hPa
Clouds: Partly cloudy
Visibility: 10 miles , 16 km
Cloud details: Partly cloudy 11000 ft
2018/04/22 02:55 KPNT 220255Z AUTO 04005KT 10SM SCT110 09/02 A3037 RMK AO2 T00930015
KVPZ - Valparaiso, Indiana, USA
Distance from station: ENE 47mi, 75km
Updated: Sat, 21-Apr-2018 9:56pm CDT
Clear
Clear
 Wind from NNE
Wind: NNE 5 mph , 7 km/h
Temperature: 46°F , 8°C
Wind Chill: 44°F , 7°C
Dew Point: 27°F , -3°C
Humidity: 46%
Barometer: 30.38 inHg , 1028.8 hPa
Clouds: Clear
Visibility: 10 miles , 16 km
2018/04/22 02:56 KVPZ 220256Z AUTO 02004KT 10SM CLR 08/M03 A3038 RMK AO2 SLP292 T00781028 53010